createdAt,value
2019-02-02T00:00:03.013Z,103.1
2019-02-02T00:01:02.855Z,102.6
2019-02-02T00:02:03.265Z,103.8
2019-02-02T00:03:03.068Z,104.7
2019-02-02T00:04:02.923Z,103.6
2019-02-02T00:05:03.884Z,105.4
2019-02-02T00:06:03.105Z,106.1
2019-02-02T00:07:02.909Z,105.7
2019-02-02T00:08:03.710Z,104.7
2019-02-02T00:09:03.201Z,105.9
2019-02-02T00:10:03.702Z,107.8
2019-02-02T00:11:03.732Z,106.6
2019-02-02T00:12:03.588Z,106.8
2019-02-02T00:13:03.143Z,108.2
2019-02-02T00:14:03.492Z,106.4
2019-02-02T00:15:03.729Z,108.7
2019-02-02T00:16:03.063Z,107.8
2019-02-02T00:17:03.777Z,109.4
2019-02-02T00:18:02.845Z,107.1
2019-02-02T00:19:03.874Z,107.8
2019-02-02T00:20:02.784Z,108
2019-02-02T00:21:03.066Z,105.7
2019-02-02T00:22:03.387Z,106.8
2019-02-02T00:23:03.798Z,104
2019-02-02T00:24:02.941Z,103.1
2019-02-02T00:25:03.889Z,101.9
2019-02-02T00:26:03.318Z,102.6
2019-02-02T00:27:03.856Z,102.6
2019-02-02T00:28:03.589Z,103.6
2019-02-02T00:29:02.918Z,101.9
2019-02-02T00:30:03.705Z,102.4
2019-02-02T00:31:02.829Z,101.9
2019-02-02T00:32:03.377Z,103.6
2019-02-02T00:33:02.906Z,101.7
2019-02-02T00:34:02.914Z,101.2
2019-02-02T00:35:03.057Z,101.9
2019-02-02T00:36:03.243Z,100.5
2019-02-02T00:37:03.043Z,102.6
2019-02-02T00:38:03.582Z,101.9
2019-02-02T00:39:03.491Z,101.7
2019-02-02T00:40:03.859Z,99.8
2019-02-02T00:41:03.023Z,101
2019-02-02T00:42:03.343Z,99.1
2019-02-02T00:43:03.680Z,98.4
2019-02-02T00:44:03.493Z,97.7
2019-02-02T00:45:02.972Z,97.5
2019-02-02T00:46:03.674Z,98.2
2019-02-02T00:47:03.175Z,98
2019-02-02T00:48:03.177Z,98.7
2019-02-02T00:49:02.924Z,98
2019-02-02T00:50:03.723Z,98
2019-02-02T00:51:03.209Z,96.3
2019-02-02T00:52:03.263Z,96.8
2019-02-02T00:53:03.556Z,97.5
2019-02-02T00:54:03.703Z,97.5
2019-02-02T00:55:03.867Z,98.7
2019-02-02T00:56:03.004Z,98
2019-02-02T00:57:03.302Z,100.3
2019-02-02T00:58:03.248Z,98.7
2019-02-02T00:59:04.073Z,99.4
2019-02-02T01:00:03.453Z,99.1
2019-02-02T01:01:03.318Z,98
2019-02-02T01:02:03.483Z,97.3
2019-02-02T01:03:03.521Z,97
2019-02-02T01:04:03.257Z,95.6
2019-02-02T01:05:02.970Z,94.7
2019-02-02T01:06:05.546Z,94.2
2019-02-02T01:07:03.597Z,93.8
2019-02-02T01:08:03.887Z,94.7
2019-02-02T01:09:03.027Z,91.9
2019-02-02T01:10:03.851Z,92.6
2019-02-02T01:11:03.693Z,91.2
2019-02-02T01:12:03.140Z,91.2
2019-02-02T01:13:03.579Z,92.6
2019-02-02T01:14:03.336Z,89.8
2019-02-02T01:15:03.081Z,90.5
2019-02-02T01:16:02.961Z,88.9
2019-02-02T01:17:03.046Z,89.8
2019-02-02T01:18:03.186Z,87.5
2019-02-02T01:19:03.708Z,90
2019-02-02T01:20:03.242Z,90.5
2019-02-02T01:21:03.918Z,89.6
2019-02-02T01:22:03.444Z,90.7
2019-02-02T01:23:03.324Z,91.4
2019-02-02T01:24:02.752Z,91
2019-02-02T01:25:03.038Z,91.7
2019-02-02T01:26:02.975Z,91.2
2019-02-02T01:27:03.131Z,92.6
2019-02-02T01:28:05.988Z,92.1
2019-02-02T01:29:03.362Z,91.4
2019-02-02T01:30:03.513Z,90.3
2019-02-02T01:31:03.418Z,91.9
2019-02-02T01:32:02.994Z,91.4
2019-02-02T01:33:03.732Z,92.6
2019-02-02T01:34:03.766Z,92.6
2019-02-02T01:35:03.354Z,91.7
2019-02-02T01:36:02.993Z,91.7
2019-02-02T01:37:03.292Z,91.4
2019-02-02T01:38:03.346Z,91.7
2019-02-02T01:39:02.992Z,91.4
2019-02-02T01:40:03.771Z,93.5
2019-02-02T01:41:03.238Z,92.6
2019-02-02T01:42:03.191Z,94.2
2019-02-02T01:43:04.113Z,94.2
2019-02-02T01:44:02.965Z,95.9
2019-02-02T01:45:03.099Z,94.2
2019-02-02T01:46:03.014Z,97.3
2019-02-02T01:47:03.010Z,94.9
2019-02-02T01:48:03.966Z,94.7
2019-02-02T01:49:03.556Z,93.5
2019-02-02T01:50:03.518Z,93.5
2019-02-02T01:51:03.224Z,94.5
2019-02-02T01:52:03.086Z,93.8
2019-02-02T01:53:03.862Z,95.4
2019-02-02T01:54:03.522Z,95.2
2019-02-02T01:55:03.624Z,97.7
2019-02-02T01:56:03.314Z,95.4
2019-02-02T01:57:03.187Z,97.7
2019-02-02T01:58:02.837Z,95.6
2019-02-02T01:59:03.458Z,95.6
2019-02-02T02:00:03.001Z,98
2019-02-02T02:01:03.230Z,96.1
2019-02-02T02:02:03.552Z,97.7
2019-02-02T02:03:03.243Z,96.6
2019-02-02T02:04:03.858Z,98.2
2019-02-02T02:05:03.279Z,96.6
2019-02-02T02:06:02.971Z,98
2019-02-02T02:07:02.973Z,97.5
2019-02-02T02:08:02.832Z,98.2
2019-02-02T02:09:03.319Z,96.1
2019-02-02T02:10:03.630Z,96.1
2019-02-02T02:11:03.463Z,94.7
2019-02-02T02:12:02.973Z,93.8
2019-02-02T02:13:02.930Z,96.6
2019-02-02T02:14:04.161Z,95.9
2019-02-02T02:15:03.812Z,95.4
2019-02-02T02:16:03.072Z,98.9
2019-02-02T02:17:03.150Z,96.1
2019-02-02T02:18:03.195Z,96.3
2019-02-02T02:19:03.178Z,96.8
2019-02-02T02:20:03.208Z,96.3
2019-02-02T02:21:03.448Z,96.3
2019-02-02T02:22:02.921Z,96.8
2019-02-02T02:23:03.232Z,98.2
2019-02-02T02:24:03.887Z,98.7
2019-02-02T02:25:03.466Z,98.7
2019-02-02T02:26:03.013Z,98.7
2019-02-02T02:27:03.293Z,98.2
2019-02-02T02:28:03.212Z,99.6
2019-02-02T02:29:03.089Z,99.4
2019-02-02T02:30:02.993Z,98.9
2019-02-02T02:31:02.954Z,98.7
2019-02-02T02:32:02.824Z,99.4
2019-02-02T02:33:03.118Z,99.1
2019-02-02T02:34:03.534Z,99.1
2019-02-02T02:35:03.277Z,99.6
2019-02-02T02:36:03.294Z,100.3
2019-02-02T02:37:03.028Z,101
2019-02-02T02:38:03.029Z,102.6
2019-02-02T02:39:03.058Z,101.2
2019-02-02T02:40:03.581Z,101.7
2019-02-02T02:41:03.061Z,100.5
2019-02-02T02:42:03.172Z,101.7
2019-02-02T02:43:03.727Z,101.7
2019-02-02T02:44:03.107Z,102.6
2019-02-02T02:45:03.629Z,101.7
2019-02-02T02:46:03.252Z,103.6
2019-02-02T02:47:02.976Z,102.2
2019-02-02T02:48:03.059Z,102.4
2019-02-02T02:49:03.687Z,102.4
2019-02-02T02:50:03.752Z,102.6
2019-02-02T02:51:03.599Z,101
2019-02-02T02:52:03.965Z,101.5
2019-02-02T02:53:03.132Z,100.5
2019-02-02T02:54:03.465Z,99.1
2019-02-02T02:55:03.747Z,100.3
2019-02-02T02:56:03.268Z,98.4
2019-02-02T02:57:03.614Z,99.8
2019-02-02T02:58:03.735Z,99.4
2019-02-02T02:59:03.538Z,100.1
2019-02-02T03:00:03.561Z,100.5
2019-02-02T03:01:03.857Z,99.6
2019-02-02T03:02:03.118Z,101.2
2019-02-02T03:03:03.644Z,100.1
2019-02-02T03:04:03.915Z,100.5
2019-02-02T03:05:03.593Z,98.9
2019-02-02T03:06:02.969Z,99.8
2019-02-02T03:07:02.848Z,99.6
2019-02-02T03:08:03.646Z,100.5
2019-02-02T03:09:03.031Z,100.3
2019-02-02T03:10:02.933Z,101.9
2019-02-02T03:11:03.000Z,100.5
2019-02-02T03:12:03.077Z,101.5
2019-02-02T03:13:03.733Z,102.2
2019-02-02T03:14:03.019Z,100.5
2019-02-02T03:15:03.583Z,99.4
2019-02-02T03:16:03.294Z,101
2019-02-02T03:17:03.567Z,99.8
2019-02-02T03:18:03.244Z,99.8
2019-02-02T03:19:03.247Z,100.1
2019-02-02T03:20:03.623Z,100.3
2019-02-02T03:21:03.298Z,99.8
2019-02-02T03:22:03.362Z,101.9
2019-02-02T03:23:02.936Z,98.9
2019-02-02T03:24:03.258Z,101
2019-02-02T03:25:03.742Z,101
2019-02-02T03:26:03.729Z,100.8
2019-02-02T03:27:03.240Z,101.2
2019-02-02T03:28:02.885Z,101
2019-02-02T03:29:03.204Z,101.9
2019-02-02T03:30:03.896Z,101.9
2019-02-02T03:31:02.964Z,101.9
2019-02-02T03:32:03.511Z,101.7
2019-02-02T03:33:02.973Z,102.6
2019-02-02T03:34:03.604Z,101.2
2019-02-02T03:35:03.485Z,101.2
2019-02-02T03:36:02.773Z,101.9
2019-02-02T03:37:03.656Z,100.3
2019-02-02T03:38:03.594Z,100.5
2019-02-02T03:39:03.524Z,99.6
2019-02-02T03:40:03.421Z,98.4
2019-02-02T03:41:03.338Z,99.1
2019-02-02T03:42:03.798Z,98.2
2019-02-02T03:43:03.097Z,97.7
2019-02-02T03:44:03.562Z,97.3
2019-02-02T03:45:03.359Z,97
2019-02-02T03:46:03.037Z,98.2
2019-02-02T03:47:03.093Z,97.7
2019-02-02T03:48:03.699Z,97.5
2019-02-02T03:49:02.818Z,98.2
2019-02-02T03:50:03.213Z,99.6
2019-02-02T03:51:02.788Z,97
2019-02-02T03:52:03.719Z,97.5
2019-02-02T03:53:02.929Z,96.6
2019-02-02T03:54:09.483Z,95.9
2019-02-02T03:55:03.876Z,96.1
2019-02-02T03:56:03.673Z,95.9
2019-02-02T03:57:03.169Z,97.7
2019-02-02T03:58:03.424Z,96.1
2019-02-02T03:59:07.429Z,97
2019-02-02T04:00:03.624Z,93.5
2019-02-02T04:01:03.797Z,95.4
2019-02-02T04:02:03.749Z,94.7
2019-02-02T04:03:02.848Z,95.2
2019-02-02T04:04:02.942Z,96.6
2019-02-02T04:05:03.461Z,96.6
2019-02-02T04:06:03.634Z,96.8
2019-02-02T04:07:03.169Z,98
2019-02-02T04:08:04.164Z,96.3
2019-02-02T04:09:03.521Z,98
2019-02-02T04:10:03.248Z,98.2
2019-02-02T04:11:02.644Z,97
2019-02-02T04:12:02.915Z,99.4
2019-02-02T04:13:03.526Z,98.2
2019-02-02T04:14:03.738Z,99.1
2019-02-02T04:15:03.153Z,99.1
2019-02-02T04:16:03.652Z,99.4
2019-02-02T04:17:03.339Z,100.1
2019-02-02T04:18:03.003Z,99.1
2019-02-02T04:19:03.250Z,97.3
2019-02-02T04:20:03.658Z,99.4
2019-02-02T04:21:03.156Z,98.2
2019-02-02T04:22:03.058Z,101
2019-02-02T04:23:02.980Z,98.4
2019-02-02T04:24:03.363Z,98.2
2019-02-02T04:25:02.921Z,99.6
2019-02-02T04:26:03.136Z,99.4
2019-02-02T04:27:02.970Z,100.1
2019-02-02T04:28:02.941Z,100.1
2019-02-02T04:29:03.626Z,98.9
2019-02-02T04:30:03.221Z,99.1
2019-02-02T04:31:03.769Z,99.4
2019-02-02T04:32:03.287Z,98.2
2019-02-02T04:33:03.510Z,98.9
2019-02-02T04:34:03.385Z,97.3
2019-02-02T04:35:03.366Z,97.3
2019-02-02T04:36:03.373Z,97.5
2019-02-02T04:37:02.766Z,95.9
2019-02-02T04:38:03.558Z,95.9
2019-02-02T04:39:03.056Z,96.1
2019-02-02T04:40:03.607Z,96.6
2019-02-02T04:41:03.368Z,96.8
2019-02-02T04:42:03.541Z,97.3
2019-02-02T04:43:02.909Z,96.3
2019-02-02T04:44:03.175Z,98.2
2019-02-02T04:45:03.853Z,96.3
2019-02-02T04:46:02.871Z,98.2
2019-02-02T04:47:03.460Z,96.3
2019-02-02T04:48:03.750Z,96.3
2019-02-02T04:49:02.855Z,96.1
2019-02-02T04:50:03.901Z,97.7
2019-02-02T04:51:03.588Z,97.7
2019-02-02T04:52:03.446Z,98.7
2019-02-02T04:53:03.814Z,100.5
2019-02-02T04:54:03.434Z,101.5
2019-02-02T04:55:03.795Z,100.3
2019-02-02T04:56:03.309Z,100.8
2019-02-02T04:57:02.717Z,101
2019-02-02T04:58:03.028Z,102.6
2019-02-02T04:59:03.500Z,101.9
2019-02-02T05:00:03.681Z,101.5
2019-02-02T05:01:03.451Z,103.1
2019-02-02T05:02:03.428Z,103.3
2019-02-02T05:03:03.017Z,101.7
2019-02-02T05:04:03.343Z,102.2
2019-02-02T05:05:03.670Z,102.9
2019-02-02T05:06:03.712Z,102.2
2019-02-02T05:07:03.363Z,102.9
2019-02-02T05:08:03.562Z,102.9
2019-02-02T05:09:03.298Z,104
2019-02-02T05:10:03.847Z,104
2019-02-02T05:11:02.885Z,103.6
2019-02-02T05:12:03.776Z,103.8
2019-02-02T05:13:02.898Z,103.1
2019-02-02T05:14:03.510Z,103.3
2019-02-02T05:15:02.956Z,101.7
2019-02-02T05:16:03.117Z,101.7
2019-02-02T05:17:02.818Z,102.9
2019-02-02T05:18:03.602Z,101.5
2019-02-02T05:19:03.707Z,101.2
2019-02-02T05:20:03.040Z,102.4
2019-02-02T05:21:03.571Z,101.9
2019-02-02T05:22:03.101Z,101.7
2019-02-02T05:23:03.209Z,100.3
2019-02-02T05:24:03.118Z,101.5
2019-02-02T05:25:03.588Z,100.5
2019-02-02T05:26:03.005Z,100.3
2019-02-02T05:27:03.505Z,101.5
2019-02-02T05:28:03.639Z,101.7
2019-02-02T05:29:03.765Z,101.9
2019-02-02T05:30:03.117Z,102.6
2019-02-02T05:31:03.521Z,101.7
2019-02-02T05:32:03.577Z,103.1
2019-02-02T05:33:03.711Z,101.2
2019-02-02T05:34:03.886Z,101.7
2019-02-02T05:35:03.263Z,102.9
2019-02-02T05:36:03.729Z,103.8
2019-02-02T05:37:03.450Z,101.7
2019-02-02T05:38:02.991Z,102.6
2019-02-02T05:39:03.132Z,101.7
2019-02-02T05:40:03.085Z,103.6
2019-02-02T05:41:03.206Z,103.6
2019-02-02T05:42:03.571Z,103.6
2019-02-02T05:43:03.299Z,102.9
2019-02-02T05:44:03.579Z,104
2019-02-02T05:45:03.761Z,103.1
2019-02-02T05:46:03.977Z,103.6
2019-02-02T05:47:03.147Z,103.3
2019-02-02T05:48:02.977Z,103.6
2019-02-02T05:49:03.268Z,103.1
2019-02-02T05:50:03.292Z,103.1
2019-02-02T05:51:03.488Z,103.8
2019-02-02T05:52:03.338Z,102.6
2019-02-02T05:53:03.123Z,104.7
2019-02-02T05:54:03.532Z,102.4
2019-02-02T05:55:03.599Z,101.9
2019-02-02T05:56:03.497Z,102.2
2019-02-02T05:57:02.945Z,101.7
2019-02-02T05:58:03.321Z,102.2
2019-02-02T05:59:03.605Z,100.3
2019-02-02T06:00:03.399Z,100.8
2019-02-02T06:01:02.840Z,101.9
2019-02-02T06:02:03.138Z,101.5
2019-02-02T06:03:03.351Z,102.9
2019-02-02T06:04:03.004Z,102.4
2019-02-02T06:05:03.528Z,103.1
2019-02-02T06:06:03.063Z,104
2019-02-02T06:07:03.148Z,104
2019-02-02T06:08:03.182Z,103.1
2019-02-02T06:09:03.144Z,102.6
2019-02-02T06:10:03.539Z,103.3
2019-02-02T06:11:03.065Z,101.2
2019-02-02T06:12:03.966Z,102.6
2019-02-02T06:13:03.707Z,101.2
2019-02-02T06:14:03.453Z,103.3
2019-02-02T06:15:03.345Z,101.5
2019-02-02T06:16:03.079Z,101.9
2019-02-02T06:17:03.098Z,103.3
2019-02-02T06:18:02.970Z,102.2
2019-02-02T06:19:02.933Z,102.2
2019-02-02T06:20:03.450Z,103.8
2019-02-02T06:21:03.646Z,102.2
2019-02-02T06:22:02.969Z,103.6
2019-02-02T06:23:03.807Z,102.6
2019-02-02T06:24:03.468Z,104
2019-02-02T06:25:03.247Z,104
2019-02-02T06:26:03.501Z,102.9
2019-02-02T06:27:03.770Z,103.1
2019-02-02T06:28:03.575Z,102.2
2019-02-02T06:29:02.842Z,101.7
2019-02-02T06:30:05.157Z,101
2019-02-02T06:31:03.423Z,101
2019-02-02T06:32:12.520Z,101
2019-02-02T06:33:03.313Z,100.3
2019-02-02T06:34:03.743Z,98.7
2019-02-02T06:35:03.402Z,101.5
2019-02-02T06:36:03.957Z,101.5
2019-02-02T06:37:03.246Z,102.4
2019-02-02T06:38:03.506Z,101.5
2019-02-02T06:39:03.133Z,103.1
2019-02-02T06:40:03.635Z,103.3
2019-02-02T06:41:03.334Z,103.3
2019-02-02T06:42:03.476Z,102.6
2019-02-02T06:43:03.032Z,102.6
2019-02-02T06:44:02.682Z,102.2
2019-02-02T06:45:03.586Z,101.5
2019-02-02T06:46:03.451Z,103.6
2019-02-02T06:47:03.784Z,102.4
2019-02-02T06:48:02.673Z,103.6
2019-02-02T06:49:03.891Z,104
2019-02-02T06:50:03.760Z,103.6
2019-02-02T06:51:03.758Z,102.6
2019-02-02T06:52:03.506Z,101.9
2019-02-02T06:53:03.802Z,100.5
2019-02-02T06:54:03.403Z,101.5
2019-02-02T06:55:03.172Z,101
2019-02-02T06:56:02.886Z,101.9
2019-02-02T06:57:03.717Z,101.5
2019-02-02T06:58:03.164Z,100.8
2019-02-02T06:59:03.316Z,99.1
2019-02-02T07:00:03.592Z,98.2
2019-02-02T07:01:03.519Z,99.6
2019-02-02T07:02:03.351Z,98.4
2019-02-02T07:03:03.762Z,99.1
2019-02-02T07:04:03.287Z,100.8
2019-02-02T07:05:03.627Z,99.8
2019-02-02T07:06:03.102Z,100.5
2019-02-02T07:07:03.391Z,100.3
2019-02-02T07:08:02.717Z,100.1
2019-02-02T07:09:02.941Z,100.1
2019-02-02T07:10:03.196Z,101.5
2019-02-02T07:11:03.362Z,100.5
2019-02-02T07:12:03.793Z,100.1
2019-02-02T07:13:03.514Z,101.2
2019-02-02T07:14:03.349Z,101.2
2019-02-02T07:15:03.685Z,101.5
2019-02-02T07:16:02.971Z,101.9
2019-02-02T07:17:03.654Z,104
2019-02-02T07:18:03.640Z,101.7
2019-02-02T07:19:03.584Z,101.7
2019-02-02T07:20:03.306Z,102.9
2019-02-02T07:21:02.799Z,100.5
2019-02-02T07:22:02.968Z,102.6
2019-02-02T07:23:03.083Z,101.7
2019-02-02T07:24:03.746Z,100.1
2019-02-02T07:25:03.386Z,101
2019-02-02T07:26:03.675Z,99.4
2019-02-02T07:27:03.089Z,101.2
2019-02-02T07:28:02.904Z,100.1
2019-02-02T07:29:02.841Z,101
2019-02-02T07:30:05.488Z,101.5
2019-02-02T07:31:03.209Z,103.3
2019-02-02T07:32:03.667Z,104.3
2019-02-02T07:33:02.924Z,104.3
2019-02-02T07:34:03.098Z,104
2019-02-02T07:35:03.559Z,104.7
2019-02-02T07:36:03.602Z,103.8
2019-02-02T07:37:02.999Z,103.6
2019-02-02T07:38:03.096Z,102.9
2019-02-02T07:39:03.593Z,103.3
2019-02-02T07:40:02.877Z,101.5
2019-02-02T07:41:03.622Z,101.7
2019-02-02T07:42:03.211Z,102.2
2019-02-02T07:43:03.588Z,101.7
2019-02-02T07:44:03.046Z,102.2
2019-02-02T07:45:03.692Z,101.7
2019-02-02T07:46:15.502Z,102.6
2019-02-02T07:47:03.626Z,101.5
2019-02-02T07:48:03.474Z,99.8
2019-02-02T07:49:03.311Z,100.5
2019-02-02T07:50:03.182Z,99.1
2019-02-02T07:51:03.411Z,99.8
2019-02-02T07:52:03.266Z,100.3
2019-02-02T07:53:03.259Z,101.7
2019-02-02T07:54:03.523Z,101.9
2019-02-02T07:55:03.312Z,101.5
2019-02-02T07:56:03.163Z,102.9
2019-02-02T07:57:03.753Z,102.2
2019-02-02T07:58:03.279Z,103.6
2019-02-02T07:59:03.750Z,103.3
2019-02-02T08:00:03.398Z,103.6
2019-02-02T08:01:02.929Z,103.1
2019-02-02T08:02:03.012Z,102.9
2019-02-02T08:03:03.616Z,102.4
2019-02-02T08:04:03.018Z,101.2
2019-02-02T08:05:03.178Z,100.8
2019-02-02T08:06:03.370Z,101
2019-02-02T08:07:03.007Z,100.3
2019-02-02T08:08:02.997Z,99.8
2019-02-02T08:09:03.297Z,99.6
2019-02-02T08:10:03.010Z,100.8
2019-02-02T08:11:03.776Z,99.6
2019-02-02T08:12:03.671Z,98.9
2019-02-02T08:13:02.735Z,99.6
2019-02-02T08:14:03.326Z,99.8
2019-02-02T08:15:03.108Z,97.3
2019-02-02T08:16:03.270Z,98.4
2019-02-02T08:17:03.575Z,99.6
2019-02-02T08:18:03.053Z,97
2019-02-02T08:19:02.946Z,99.1
2019-02-02T08:20:03.892Z,98
2019-02-02T08:21:03.106Z,96.6
2019-02-02T08:22:03.696Z,97
2019-02-02T08:23:03.564Z,97.3
2019-02-02T08:24:03.516Z,96.6
2019-02-02T08:25:03.847Z,97.5
2019-02-02T08:26:03.542Z,97.7
2019-02-02T08:27:02.947Z,98.4
2019-02-02T08:28:03.350Z,96.6
2019-02-02T08:29:02.924Z,96.8
2019-02-02T08:30:03.780Z,97.5
2019-02-02T08:31:02.779Z,95.4
2019-02-02T08:32:03.635Z,97
2019-02-02T08:33:03.561Z,95.6
2019-02-02T08:34:03.710Z,96.8
2019-02-02T08:35:03.137Z,96.1
2019-02-02T08:36:04.473Z,96.6
2019-02-02T08:37:03.393Z,97.3
2019-02-02T08:38:03.792Z,96.8
2019-02-02T08:39:03.209Z,98.7
2019-02-02T08:40:03.746Z,97
2019-02-02T08:41:03.339Z,98.7
2019-02-02T08:42:03.469Z,97.5
2019-02-02T08:43:03.218Z,97
2019-02-02T08:44:03.395Z,100.1
2019-02-02T08:45:03.815Z,98
2019-02-02T08:46:03.259Z,99.4
2019-02-02T08:47:02.893Z,99.1
2019-02-02T08:48:03.274Z,99.8
2019-02-02T08:49:02.960Z,101.2
2019-02-02T08:50:03.165Z,101.5
2019-02-02T08:51:03.386Z,101.5
2019-02-02T08:52:03.290Z,101.9
2019-02-02T08:53:03.132Z,102.6
2019-02-02T08:54:04.078Z,101.2
2019-02-02T08:55:03.410Z,101.9
2019-02-02T08:56:03.903Z,102.2
2019-02-02T08:57:03.945Z,101.5
2019-02-02T08:58:01.882Z,101
2019-02-02T08:59:03.267Z,102.2
2019-02-02T09:00:02.818Z,103.3
2019-02-02T09:01:04.748Z,101.2
2019-02-02T09:02:03.474Z,103.3
2019-02-02T09:03:03.597Z,103.1
2019-02-02T09:04:03.980Z,101.5
2019-02-02T09:05:03.970Z,101.9
2019-02-02T09:06:03.573Z,103.1
2019-02-02T09:07:03.400Z,102.4
2019-02-02T09:08:03.568Z,104.7
2019-02-02T09:09:03.768Z,103.3
2019-02-02T09:10:03.515Z,103.6
2019-02-02T09:11:03.228Z,104.3
2019-02-02T09:12:03.082Z,105.2
2019-02-02T09:13:03.387Z,103.8
2019-02-02T09:14:03.137Z,104.3
2019-02-02T09:15:03.267Z,104.5
2019-02-02T09:16:03.764Z,104.7
2019-02-02T09:17:02.931Z,105.7
2019-02-02T09:18:03.396Z,103.8
2019-02-02T09:19:03.641Z,105.4
2019-02-02T09:20:03.151Z,105.2
2019-02-02T09:21:03.466Z,104.3
2019-02-02T09:22:03.230Z,105.2
2019-02-02T09:23:07.032Z,106.6
2019-02-02T09:24:02.983Z,105.4
2019-02-02T09:25:03.521Z,105.4
2019-02-02T09:26:03.085Z,107.3
2019-02-02T09:27:02.927Z,104.3
2019-02-02T09:28:03.423Z,105.2
2019-02-02T09:29:03.606Z,107.5
2019-02-02T09:30:02.851Z,105
2019-02-02T09:31:03.179Z,105
2019-02-02T09:32:03.473Z,105.4
2019-02-02T09:33:03.401Z,104.3
2019-02-02T09:34:02.959Z,103.1
2019-02-02T09:35:03.215Z,102.4
2019-02-02T09:36:03.486Z,102.4
2019-02-02T09:37:02.869Z,102.9
2019-02-02T09:38:03.521Z,101.5
2019-02-02T09:39:03.262Z,102.4
2019-02-02T09:40:03.696Z,101.5
2019-02-02T09:41:02.996Z,103.1
2019-02-02T09:42:03.224Z,101.5
2019-02-02T09:43:02.957Z,101.5
2019-02-02T09:44:03.665Z,102.9
2019-02-02T09:45:03.307Z,101.9
2019-02-02T09:46:05.018Z,100.1
2019-02-02T09:47:03.375Z,100.1
2019-02-02T09:48:02.846Z,99.8
2019-02-02T09:49:03.050Z,98.9
2019-02-02T09:50:03.202Z,97.5
2019-02-02T09:51:02.839Z,98.9
2019-02-02T09:52:03.583Z,98.9
2019-02-02T09:53:02.851Z,98.7
2019-02-02T09:54:02.863Z,97.7
2019-02-02T09:55:03.837Z,98.7
2019-02-02T09:56:03.636Z,99.6
2019-02-02T09:57:03.847Z,100.1
2019-02-02T09:58:03.494Z,98.7
2019-02-02T09:59:03.482Z,99.8
2019-02-02T10:00:03.715Z,100.8
2019-02-02T10:01:02.931Z,98.2
2019-02-02T10:02:03.597Z,99.1
2019-02-02T10:03:02.954Z,98.9
2019-02-02T10:04:03.210Z,97.3
2019-02-02T10:05:03.342Z,98
2019-02-02T10:06:03.666Z,96.8
2019-02-02T10:07:03.007Z,96.1
2019-02-02T10:08:02.879Z,95.4
2019-02-02T10:09:03.295Z,94.5
2019-02-02T10:10:03.734Z,94.5
2019-02-02T10:11:02.863Z,93.5
2019-02-02T10:12:03.482Z,94.9
2019-02-02T10:13:03.122Z,93.3
2019-02-02T10:14:02.914Z,93.5
2019-02-02T10:15:03.731Z,93.8
2019-02-02T10:16:02.994Z,93.1
2019-02-02T10:17:02.714Z,94.7
2019-02-02T10:18:03.243Z,92.4
2019-02-02T10:19:03.311Z,95.2
2019-02-02T10:20:03.710Z,94.9
2019-02-02T10:21:04.647Z,94.7
2019-02-02T10:22:03.179Z,96.1
2019-02-02T10:23:03.833Z,94.7
2019-02-02T10:24:03.471Z,96.8
2019-02-02T10:25:03.229Z,97.3
2019-02-02T10:26:03.695Z,97
2019-02-02T10:27:03.233Z,96.6
2019-02-02T10:28:03.313Z,96.3
2019-02-02T10:29:02.946Z,96.3
2019-02-02T10:30:02.874Z,95.2
2019-02-02T10:31:03.700Z,96.6
2019-02-02T10:32:03.371Z,96.8
2019-02-02T10:33:03.837Z,97.5
2019-02-02T10:34:03.468Z,99.4
2019-02-02T10:35:03.393Z,98.9
2019-02-02T10:36:03.137Z,98.2
2019-02-02T10:37:02.826Z,98.4
2019-02-02T10:38:03.770Z,96.8
2019-02-02T10:39:03.114Z,97.3
2019-02-02T10:40:03.517Z,96.1
2019-02-02T10:41:02.959Z,97
2019-02-02T10:42:03.156Z,96.3
2019-02-02T10:43:03.635Z,96.6
2019-02-02T10:44:03.591Z,97.5
2019-02-02T10:45:03.092Z,97.5
2019-02-02T10:46:02.821Z,96.1
2019-02-02T10:47:03.561Z,97
2019-02-02T10:48:03.366Z,98.4
2019-02-02T10:49:03.337Z,96.6
2019-02-02T10:50:03.500Z,95.4
2019-02-02T10:51:03.604Z,96.3
2019-02-02T10:52:02.270Z,96.1
2019-02-02T10:53:03.439Z,95.2
2019-02-02T10:54:05.937Z,94.5
2019-02-02T10:55:03.274Z,95.4
2019-02-02T10:56:03.606Z,94.9
2019-02-02T10:57:03.099Z,95.4
2019-02-02T10:58:02.964Z,96.1
2019-02-02T10:59:03.355Z,94.9
2019-02-02T11:00:02.960Z,97.3
2019-02-02T11:01:02.835Z,95.6
2019-02-02T11:02:03.347Z,96.3
2019-02-02T11:03:02.938Z,95.4
2019-02-02T11:04:04.045Z,96.3
2019-02-02T11:05:04.314Z,98.9
2019-02-02T11:06:03.366Z,98.4
2019-02-02T11:07:03.640Z,100.8
2019-02-02T11:08:04.276Z,101.5
2019-02-02T11:09:03.471Z,101
2019-02-02T11:10:03.795Z,102.9
2019-02-02T11:11:03.399Z,103.1
2019-02-02T11:12:03.798Z,101
2019-02-02T11:13:03.283Z,104
2019-02-02T11:14:03.391Z,104
2019-02-02T11:15:03.439Z,105
2019-02-02T11:16:04.041Z,105.4
2019-02-02T11:17:03.928Z,105
2019-02-02T11:18:03.534Z,102.4
2019-02-02T11:19:03.275Z,103.1
2019-02-02T11:20:04.040Z,101.7
2019-02-02T11:21:03.786Z,104
2019-02-02T11:22:03.873Z,103.8
2019-02-02T11:23:04.086Z,102.6
2019-02-02T11:24:03.673Z,102.2
2019-02-02T11:25:04.188Z,103.3
2019-02-02T11:26:03.830Z,102.9
2019-02-02T11:27:03.270Z,104.5
2019-02-02T11:28:04.014Z,105.7
2019-02-02T11:29:03.541Z,103.8
2019-02-02T11:30:03.044Z,105.4
2019-02-02T11:31:03.655Z,105.2
2019-02-02T11:32:03.630Z,104
2019-02-02T11:33:03.030Z,104
2019-02-02T11:34:03.151Z,105
2019-02-02T11:35:03.665Z,104
2019-02-02T11:36:02.991Z,104.7
2019-02-02T11:37:03.725Z,104.7
2019-02-02T11:38:03.612Z,105
2019-02-02T11:39:03.140Z,104.5
2019-02-02T11:40:03.644Z,105.2
2019-02-02T11:41:03.138Z,105.2
2019-02-02T11:42:03.347Z,104.5
2019-02-02T11:43:03.574Z,105.9
2019-02-02T11:44:02.864Z,104.5
2019-02-02T11:45:03.320Z,103.1
2019-02-02T11:46:03.432Z,104.5
2019-02-02T11:47:02.962Z,103.3
2019-02-02T11:48:03.512Z,105.7
2019-02-02T11:49:03.582Z,105.9
2019-02-02T11:50:03.674Z,107.5
2019-02-02T11:51:03.354Z,107.5
2019-02-02T11:52:03.137Z,108
2019-02-02T11:53:03.613Z,107.1
2019-02-02T11:54:02.968Z,106.8
2019-02-02T11:55:03.034Z,108.2
2019-02-02T11:56:03.063Z,106.1
2019-02-02T11:57:03.446Z,105.9
2019-02-02T11:58:03.770Z,104.3
2019-02-02T11:59:03.315Z,104.3
2019-02-02T12:00:03.734Z,104.3
2019-02-02T12:01:02.993Z,104.3
2019-02-02T12:02:15.163Z,106.4
2019-02-02T12:03:04.943Z,104.3
2019-02-02T12:04:03.257Z,105
2019-02-02T12:05:03.474Z,105.2
2019-02-02T12:06:03.352Z,104
2019-02-02T12:07:02.917Z,101.9
2019-02-02T12:08:03.286Z,102.6
2019-02-02T12:09:03.713Z,101.5
2019-02-02T12:10:03.111Z,101
2019-02-02T12:11:02.810Z,102.2
2019-02-02T12:12:02.789Z,98.9
2019-02-02T12:13:03.628Z,100.8
2019-02-02T12:14:03.068Z,98.9
2019-02-02T12:15:03.268Z,98.4
2019-02-02T12:16:02.975Z,97.3
2019-02-02T12:17:03.252Z,98.9
2019-02-02T12:18:03.771Z,97.7
2019-02-02T12:19:03.415Z,98.4
2019-02-02T12:20:03.695Z,97.5
2019-02-02T12:21:02.910Z,98
2019-02-02T12:22:03.644Z,99.1
2019-02-02T12:23:03.867Z,97
2019-02-02T12:24:16.552Z,96.3
2019-02-02T12:25:03.040Z,97.7
2019-02-02T12:26:03.681Z,95.9
2019-02-02T12:27:03.268Z,96.8
2019-02-02T12:28:03.740Z,97.5
2019-02-02T12:29:02.994Z,98.2
2019-02-02T12:30:03.606Z,97.7
2019-02-02T12:31:03.180Z,97.7
2019-02-02T12:32:03.041Z,98.2
2019-02-02T12:33:04.046Z,96.3
2019-02-02T12:34:03.102Z,95.9
2019-02-02T12:35:05.090Z,95.6
2019-02-02T12:36:03.238Z,95.4
2019-02-02T12:37:03.089Z,96.3
2019-02-02T12:38:03.242Z,95.6
2019-02-02T12:39:03.362Z,94.7
2019-02-02T12:40:03.328Z,94.5
2019-02-02T12:41:02.786Z,93.5
2019-02-02T12:42:03.262Z,93.1
2019-02-02T12:43:03.098Z,94.5
2019-02-02T12:44:03.130Z,94
2019-02-02T12:45:03.024Z,95.6
2019-02-02T12:46:02.817Z,94
2019-02-02T12:47:03.476Z,94.9
2019-02-02T12:48:03.505Z,92.1
2019-02-02T12:49:03.161Z,93.5
2019-02-02T12:50:03.744Z,94
2019-02-02T12:51:03.497Z,93.8
2019-02-02T12:52:03.125Z,93.8
2019-02-02T12:53:03.145Z,93.1
2019-02-02T12:54:03.121Z,94.9
2019-02-02T12:55:03.768Z,96.1
2019-02-02T12:56:03.305Z,96.6
2019-02-02T12:57:02.813Z,94.9
2019-02-02T12:58:03.432Z,94
2019-02-02T12:59:03.219Z,96.3
2019-02-02T13:00:03.366Z,94.2
2019-02-02T13:01:02.932Z,95.2
2019-02-02T13:02:03.220Z,96.1
2019-02-02T13:03:03.105Z,95.4
2019-02-02T13:04:06.065Z,95.2
2019-02-02T13:05:03.603Z,96.3
2019-02-02T13:06:03.562Z,95.2
2019-02-02T13:07:03.001Z,95.4
2019-02-02T13:08:05.995Z,94.2
2019-02-02T13:09:03.303Z,94.9
2019-02-02T13:10:03.153Z,96.1